Time;durP1;ratioP1;P1;durP2;ratioP2;P2;SDS_P1;SDS_P2;PMS_P1;PMS_P2;Temp;Humidity;BMP_temperature;BMP_pressure;BME280_temperature;BME280_humidity;BME280_pressure;Samples;Min_cycle;Max_cycle;Signal;HPM_P1;HPM_P2
2022/06/13 00:00:29;;;;;;;2.83;2.70;;;;;;;20.57;90.42;99213.63;5015127;28;20205;-68
2022/06/13 00:02:56;;;;;;;3.90;3.20;;;;;;;20.52;90.27;99227.13;5015008;28;20280;-68
2022/06/13 00:05:23;;;;;;;3.10;2.97;;;;;;;20.57;91.13;99220.94;5015350;28;20194;-68
2022/06/13 00:07:51;;;;;;;3.20;3.10;;;;;;;20.60;90.28;99223.91;5015330;28;20194;-68
2022/06/13 00:10:18;;;;;;;3.30;3.07;;;;;;;20.67;89.92;99223.63;5015040;28;20293;-69
2022/06/13 00:12:45;;;;;;;3.27;3.07;;;;;;;20.65;90.79;99225.81;5015330;28;20751;-69
2022/06/13 00:15:15;;;;;;;3.17;2.70;;;;;;;20.66;90.71;99214.72;5015988;28;20543;-68
2022/06/13 00:17:42;;;;;;;3.03;2.83;;;;;;;20.52;90.84;99219.84;5015113;28;20197;-68
2022/06/13 00:20:09;;;;;;;3.43;2.90;;;;;;;20.56;90.75;99217.41;5015089;28;20194;-68
2022/06/13 00:22:36;;;;;;;3.07;2.93;;;;;;;20.58;91.58;99220.66;5014639;28;20280;-68
2022/06/13 00:25:05;;;;;;;4.83;3.43;;;;;;;20.52;92.09;99217.16;5015020;28;20194;-68
2022/06/13 00:27:32;;;;;;;3.13;2.90;;;;;;;20.43;92.21;99213.31;5014649;28;20618;-69
2022/06/13 00:29:59;;;;;;;3.60;3.30;;;;;;;20.45;91.73;99208.50;5014866;28;20198;-68
2022/06/13 00:32:26;;;;;;;6.00;2.90;;;;;;;20.47;91.39;99208.22;5014556;28;20670;-68
2022/06/13 00:34:53;;;;;;;3.00;2.90;;;;;;;20.38;91.44;99205.22;5014462;28;20201;-68
2022/06/13 00:37:20;;;;;;;3.40;3.20;;;;;;;20.34;91.44;99203.34;5014478;28;20190;-68
2022/06/13 00:39:46;;;;;;;2.93;2.83;;;;;;;20.36;91.61;99202.00;5015321;28;20198;-68
2022/06/13 00:42:18;;;;;;;3.40;3.13;;;;;;;20.38;91.35;99212.53;5014281;28;20222;-69
2022/06/13 00:45:08;;;;;;;3.23;2.67;;;;;;;20.52;90.54;99200.13;5015510;28;20316;-68
2022/06/13 00:47:35;;;;;;;5.87;3.40;;;;;;;20.63;91.16;99204.47;5014308;28;20236;-68
2022/06/13 00:50:05;;;;;;;3.43;3.10;;;;;;;20.63;90.83;99204.47;5014148;28;20194;-68
2022/06/13 00:52:36;;;;;;;3.37;3.07;;;;;;;20.65;90.75;99207.72;5014791;28;20259;-68
2022/06/13 00:55:04;;;;;;;3.37;3.17;;;;;;;20.66;90.55;99201.22;5014903;28;20236;-68
2022/06/13 00:57:33;;;;;;;3.23;3.03;;;;;;;20.67;90.26;99216.38;5014071;28;20748;-68
2022/06/13 01:00:03;;;;;;;4.23;3.13;;;;;;;20.79;90.70;99221.50;5014585;28;20216;-68
2022/06/13 01:02:30;;;;;;;3.30;3.10;;;;;;;20.94;90.31;99214.25;5013580;28;20213;-68
2022/06/13 01:04:59;;;;;;;3.27;3.07;;;;;;;21.03;89.15;99212.63;5015065;28;20248;-68
2022/06/13 01:07:29;;;;;;;3.00;2.80;;;;;;;21.15;88.55;99221.25;5014916;28;20558;-68
2022/06/13 01:12:42;;;;;;;2.90;2.80;;;;;;;21.17;88.92;99208.31;5014532;28;20237;-68
2022/06/13 01:15:40;;;;;;;3.90;2.90;;;;;;;21.19;89.20;99205.34;5014061;28;20194;-68
2022/06/13 01:18:24;;;;;;;2.97;2.67;;;;;;;21.20;89.65;99201.56;5014801;28;20217;-69
2022/06/13 01:21:07;;;;;;;3.30;3.20;;;;;;;21.12;89.60;99210.19;5013711;28;20716;-69
2022/06/13 01:24:14;;;;;;;3.30;2.80;;;;;;;21.19;89.04;99219.66;5014697;28;20220;-69
2022/06/13 01:27:00;;;;;;;3.13;2.93;;;;;;;21.23;88.61;99220.72;5009115;28;20198;-69
2022/06/13 01:29:48;;;;;;;3.20;3.00;;;;;;;21.30;89.01;99228.56;5014376;28;20189;-69
2022/06/13 01:32:27;;;;;;;3.30;3.10;;;;;;;21.31;88.19;99225.59;5014029;28;20198;-68
2022/06/13 01:35:04;;;;;;;3.13;2.87;;;;;;;21.35;87.10;99225.88;5013464;28;20685;-69
2022/06/13 01:37:42;;;;;;;3.20;3.00;;;;;;;21.25;86.93;99232.09;5014070;28;20542;-68
2022/06/13 01:40:18;;;;;;;3.07;2.87;;;;;;;21.16;86.82;99228.31;5014164;28;20272;-68
2022/06/13 01:42:59;;;;;;;6.37;3.27;;;;;;;21.21;87.57;99228.31;5013207;28;20723;-68
2022/06/13 01:45:36;;;;;;;3.00;2.80;;;;;;;21.11;87.26;99230.19;5014066;28;20606;-68
2022/06/13 01:48:11;;;;;;;3.30;3.00;;;;;;;21.10;87.22;99228.59;5014297;28;20248;-68
2022/06/13 01:50:45;;;;;;;3.77;2.80;;;;;;;21.14;87.44;99230.47;5013979;28;20185;-68
2022/06/13 01:53:20;;;;;;;3.70;2.67;;;;;;;21.23;87.15;99230.75;5013460;28;20638;-68
2022/06/13 01:55:53;;;;;;;3.43;3.23;;;;;;;21.27;87.78;99229.13;5013281;28;20610;-68
2022/06/13 01:58:27;;;;;;;3.23;2.97;;;;;;;21.34;86.78;99225.06;5013504;28;20240;-68
2022/06/13 02:01:02;;;;;;;3.83;3.07;;;;;;;21.24;85.92;99224.25;5013016;28;20236;-68
2022/06/13 02:03:35;;;;;;;3.67;3.10;;;;;;;21.16;85.68;99224.78;5013112;28;20209;-68
2022/06/13 02:06:04;;;;;;;3.67;2.73;;;;;;;20.94;86.46;99225.06;5012865;28;20186;-68
2022/06/13 02:08:36;;;;;;;3.40;3.10;;;;;;;20.91;86.32;99220.22;5013675;28;20201;-68
2022/06/13 02:11:11;;;;;;;3.63;3.33;;;;;;;20.88;86.08;99215.31;5013665;28;20186;-69
2022/06/13 02:13:41;;;;;;;3.67;3.40;;;;;;;20.86;86.29;99213.97;5012558;28;20232;-68
2022/06/13 02:16:14;;;;;;;3.20;2.90;;;;;;;20.84;86.48;99213.41;5013577;28;20186;-69
2022/06/13 02:18:51;;;;;;;3.27;2.97;;;;;;;20.74;86.79;99213.41;5012674;28;20712;-68
2022/06/13 02:21:24;;;;;;;3.10;3.00;;;;;;;20.70;87.14;99215.81;5013737;28;20213;-68
2022/06/13 02:23:54;;;;;;;3.90;2.80;;;;;;;20.69;87.18;99210.69;5013085;28;20272;-68
2022/06/13 02:26:25;;;;;;;6.60;2.90;;;;;;;20.61;87.39;99214.72;5013895;28;20198;-68
2022/06/13 02:28:55;;;;;;;3.43;3.23;;;;;;;20.52;87.79;99224.44;5013660;28;20186;-68
2022/06/13 02:31:26;;;;;;;3.07;2.87;;;;;;;20.53;88.23;99224.16;5013097;28;20190;-68
2022/06/13 02:34:01;;;;;;;3.27;2.83;;;;;;;20.58;88.11;99215.25;5013558;28;20193;-68
2022/06/13 02:36:36;;;;;;;3.60;3.40;;;;;;;20.66;88.73;99214.72;5012809;28;20185;-68
2022/06/13 02:39:08;;;;;;;3.27;2.97;;;;;;;20.58;89.21;99215.25;5012987;28;20189;-68
2022/06/13 02:41:39;;;;;;;3.50;3.37;;;;;;;20.62;89.21;99221.72;5013174;28;20256;-69
2022/06/13 02:44:12;;;;;;;4.50;3.13;;;;;;;20.62;89.35;99221.72;5012774;28;20209;-69
2022/06/13 02:46:43;;;;;;;4.40;3.47;;;;;;;20.58;89.72;99226.03;5013108;28;20245;-69
2022/06/13 02:49:16;;;;;;;3.93;3.37;;;;;;;20.47;90.19;99221.72;5012787;28;20621;-69
2022/06/13 02:51:50;;;;;;;3.63;3.33;;;;;;;20.44;90.70;99225.75;5013031;28;20193;-68
2022/06/13 02:54:22;;;;;;;3.77;3.43;;;;;;;20.43;91.50;99223.34;5012108;28;20186;-68
2022/06/13 02:57:24;;;;;;;3.23;3.03;;;;;;;20.36;91.31;99226.28;5012106;28;20213;-68
2022/06/13 03:00:10;;;;;;;4.70;3.53;;;;;;;20.39;90.99;99230.34;5012331;28;20275;-68
2022/06/13 03:02:48;;;;;;;4.80;3.20;;;;;;;20.23;91.84;99223.25;5012080;28;20693;-68
2022/06/13 03:05:39;;;;;;;3.57;3.20;;;;;;;20.07;92.33;99222.38;5012982;28;20193;-68
2022/06/13 03:08:17;;;;;;;5.90;3.40;;;;;;;19.88;93.31;99231.16;5012113;28;20658;-68
2022/06/13 03:10:52;;;;;;;4.13;3.40;;;;;;;19.88;93.38;99226.59;5013086;28;20260;-68
2022/06/13 03:13:30;;;;;;;3.70;3.40;;;;;;;19.86;93.16;99231.41;5012224;28;20225;-69
2022/06/13 03:16:02;;;;;;;4.03;3.63;;;;;;;19.89;93.43;99228.22;5012025;28;20284;-69
2022/06/13 03:18:33;;;;;;;3.77;3.30;;;;;;;19.97;93.31;99229.63;5013149;28;20247;-68
2022/06/13 03:21:10;;;;;;;4.47;3.53;;;;;;;19.89;93.44;99227.41;5012232;28;20562;-68
2022/06/13 03:23:44;;;;;;;3.80;3.60;;;;;;;19.83;93.31;99228.44;5011841;28;20216;-68
2022/06/13 03:26:20;;;;;;;3.80;3.47;;;;;;;19.75;93.50;99212.78;5016306;28;20186;-68
2022/06/13 03:28:51;;;;;;;3.73;3.43;;;;;;;19.70;93.27;99223.53;5015757;28;20635;-68
2022/06/13 03:31:23;;;;;;;5.70;5.20;;;;;;;19.70;92.32;99223.53;5016509;28;20196;-68
2022/06/13 03:33:55;;;;;;;4.07;3.70;;;;;;;19.84;92.10;99221.97;5016344;28;20244;-68
2022/06/13 03:36:27;;;;;;;5.23;4.73;;;;;;;19.97;91.75;99219.63;5016443;28;20247;-68
2022/06/13 03:39:03;;;;;;;4.27;3.47;;;;;;;19.87;91.96;99224.16;5016724;28;20186;-68
2022/06/13 03:41:34;;;;;;;5.33;3.90;;;;;;;19.96;91.94;99227.97;5015485;28;20189;-68
2022/06/13 03:44:06;;;;;;;4.20;3.77;;;;;;;20.12;91.25;99227.81;5015948;28;20210;-68
2022/06/13 03:46:41;;;;;;;4.50;3.23;;;;;;;20.21;90.42;99233.50;5016826;28;20186;-68
2022/06/13 03:49:16;;;;;;;6.37;3.30;;;;;;;20.27;90.20;99230.56;5016241;28;20186;-68
2022/06/13 03:51:46;;;;;;;3.83;3.53;;;;;;;20.23;90.08;99228.66;5016173;28;20239;-68
2022/06/13 03:54:16;;;;;;;3.30;3.10;;;;;;;20.29;89.51;99233.81;5015535;28;20202;-69
2022/06/13 03:56:48;;;;;;;3.27;3.07;;;;;;;20.48;88.89;99234.94;5015981;28;20200;-68
2022/06/13 03:59:20;;;;;;;4.37;3.23;;;;;;;20.54;88.01;99235.75;5015255;28;20186;-68
2022/06/13 04:01:49;;;;;;;3.40;3.20;;;;;;;20.87;86.46;99245.28;5015137;28;20646;-70
2022/06/13 04:04:19;;;;;;;3.63;3.13;;;;;;;21.50;83.43;99250.97;5016146;28;20226;-69
2022/06/13 04:06:48;;;;;;;3.30;3.10;;;;;;;22.07;82.79;99248.72;5015488;28;20202;-70
2022/06/13 04:09:19;;;;;;;2.67;2.50;;;;;;;22.35;81.19;99249.94;5016080;28;20194;-67
2022/06/13 04:11:59;;;;;;;3.10;2.60;;;;;;;22.41;80.04;99257.75;5015587;28;20190;-67
2022/06/13 04:14:49;;;;;;;2.97;2.70;;;;;;;22.36;78.45;99265.91;5014978;28;20194;-67
2022/06/13 04:17:26;;;;;;;3.23;2.60;;;;;;;22.37;79.14;99261.31;5015915;28;20667;-67
2022/06/13 04:19:59;;;;;;;3.07;2.87;;;;;;;22.43;79.20;99260.19;5015980;28;20186;-67
2022/06/13 04:22:36;;;;;;;3.17;2.83;;;;;;;22.57;79.11;99263.94;5016136;28;20194;-67
2022/06/13 04:25:06;;;;;;;4.27;3.37;;;;;;;22.67;78.77;99261.97;5012238;28;20657;-68
2022/06/13 04:27:43;;;;;;;6.00;3.23;;;;;;;22.91;76.62;99273.75;5014766;28;20195;-67
2022/06/13 04:30:14;;;;;;;3.30;3.10;;;;;;;23.32;76.65;99275.09;5013254;28;20642;-68
2022/06/13 04:32:48;;;;;;;8.20;3.23;;;;;;;23.65;74.38;99274.25;5014755;28;20240;-67
2022/06/13 04:35:16;;;;;;;5.10;2.80;;;;;;;23.67;73.46;99269.34;5014510;28;20183;-67
2022/06/13 04:37:46;;;;;;;3.77;2.67;;;;;;;23.62;73.85;99280.25;5014357;28;20194;-68
2022/06/13 04:40:16;;;;;;;3.23;2.80;;;;;;;23.68;73.79;99283.75;5015196;28;20219;-67
2022/06/13 04:42:46;;;;;;;3.33;2.90;;;;;;;23.64;73.54;99278.06;5014357;28;20219;-67
2022/06/13 04:45:21;;;;;;;3.80;2.80;;;;;;;23.71;72.40;99283.16;5014453;28;20663;-68
2022/06/13 04:47:49;;;;;;;4.50;2.93;;;;;;;23.64;72.19;99294.31;5014285;28;20708;-72
2022/06/13 04:50:20;;;;;;;2.93;2.73;;;;;;;23.52;72.59;99285.75;5013594;28;20205;-72
2022/06/13 04:52:51;;;;;;;2.70;2.50;;;;;;;23.51;73.96;99283.31;5012696;28;20654;-71
2022/06/13 04:55:23;;;;;;;3.33;2.83;;;;;;;23.78;73.09;99284.44;5013693;28;20191;-72
2022/06/13 04:57:50;;;;;;;4.47;2.80;;;;;;;23.99;71.82;99285.88;5014822;28;20194;-71
2022/06/13 05:00:17;;;;;;;7.10;3.40;;;;;;;24.56;70.30;99291.16;5014666;28;20204;-72
2022/06/13 05:02:46;;;;;;;5.60;3.03;;;;;;;25.81;66.09;99290.34;5015278;28;20340;-71
2022/06/13 05:05:36;;;;;;;3.80;3.57;;;;;;;26.85;62.69;99294.81;5014387;28;20246;-71
2022/06/13 05:08:12;;;;;;;3.67;2.70;;;;;;;27.78;59.08;99298.28;5014435;28;20569;-72
2022/06/13 05:10:42;;;;;;;7.70;2.93;;;;;;;28.45;56.87;99301.69;5013733;28;20234;-72
2022/06/13 05:13:09;;;;;;;8.20;3.17;;;;;;;29.05;54.69;99294.41;5015009;28;20316;-75
2022/06/13 05:15:36;;;;;;;5.20;2.83;;;;;;;29.58;52.98;99305.84;5013547;28;20194;-72
2022/06/13 05:18:38;;;;;;;4.43;2.90;;;;;;;30.08;50.92;99317.78;5013658;28;20194;-72
2022/06/13 05:21:20;;;;;;;6.43;2.53;;;;;;;30.72;50.14;99308.34;4958757;28;20245;-75
2022/06/13 05:24:06;;;;;;;3.80;2.60;;;;;;;30.70;47.18;99313.34;5014330;28;20267;-73
2022/06/13 05:26:33;;;;;;;5.27;2.17;;;;;;;30.88;47.10;99309.38;5013870;28;20186;-75
2022/06/13 05:28:59;;;;;;;4.20;2.27;;;;;;;30.94;46.90;99310.78;5013425;28;20194;-72
2022/06/13 05:31:28;;;;;;;4.27;2.17;;;;;;;31.04;46.73;99296.69;5012887;28;20201;-71
2022/06/13 05:33:57;;;;;;;3.47;2.60;;;;;;;31.24;45.65;99306.06;5000548;28;20238;-72
2022/06/13 05:36:26;;;;;;;3.27;2.10;;;;;;;31.38;45.89;99296.41;5012736;28;20673;-72
2022/06/13 05:38:57;;;;;;;4.80;3.30;;;;;;;30.78;46.14;99292.50;5013045;28;20659;-69
2022/06/13 05:41:23;;;;;;;2.43;2.20;;;;;;;30.14;47.93;99300.09;5002920;28;20671;-68
2022/06/13 05:43:50;;;;;;;3.50;2.33;;;;;;;29.92;49.67;99291.28;4993453;28;20644;-68
2022/06/13 05:46:19;;;;;;;3.13;2.40;;;;;;;30.65;47.73;99299.00;4993871;28;20195;-69
2022/06/13 05:48:46;;;;;;;3.20;2.63;;;;;;;30.67;47.83;99297.56;4994179;28;20257;-69
2022/06/13 05:51:12;;;;;;;4.50;2.70;;;;;;;30.74;47.49;99292.34;5013335;28;20197;-70
2022/06/13 05:53:39;;;;;;;6.83;2.73;;;;;;;31.21;46.30;99293.78;5013222;28;20284;-70
2022/06/13 05:56:11;;;;;;;2.40;2.20;;;;;;;31.08;46.03;99297.63;5012859;28;20229;-70
2022/06/13 05:58:39;;;;;;;5.33;2.53;;;;;;;31.12;46.16;99292.25;5012800;28;20646;-70
2022/06/13 06:01:07;;;;;;;8.23;2.40;;;;;;;31.26;45.71;99290.88;5013186;28;20248;-69
2022/06/13 06:03:34;;;;;;;3.10;2.23;;;;;;;30.49;46.55;99292.50;5012949;28;20233;-70
2022/06/13 06:06:02;;;;;;;2.17;2.07;;;;;;;30.46;47.02;99282.19;5010432;28;20569;-69
2022/06/13 06:08:31;;;;;;;2.50;2.30;;;;;;;30.72;47.08;99283.69;4993247;28;20675;-70
2022/06/13 06:10:59;;;;;;;4.20;2.00;;;;;;;31.24;45.95;99287.63;4992896;28;20198;-69
2022/06/13 06:13:29;;;;;;;4.80;2.70;;;;;;;30.82;46.17;99290.72;4993203;28;20731;-71
2022/06/13 06:15:58;;;;;;;6.33;2.43;;;;;;;30.43;47.42;99291.06;4993370;28;20191;-70
2022/06/13 06:18:26;;;;;;;5.70;2.30;;;;;;;30.71;46.78;99290.31;4993117;28;20197;-71
2022/06/13 06:20:53;;;;;;;7.20;2.30;;;;;;;30.53;46.91;99291.50;5003660;28;20194;-71
2022/06/13 06:23:19;;;;;;;2.60;2.40;;;;;;;30.92;45.81;99299.34;5011623;28;20604;-72
2022/06/13 06:25:48;;;;;;;3.43;2.40;;;;;;;30.79;46.22;99294.91;5004251;28;20198;-68
2022/06/13 06:28:17;;;;;;;6.20;2.20;;;;;;;31.12;46.32;99305.97;5001991;28;20204;-68
2022/06/13 06:30:46;;;;;;;5.33;2.60;;;;;;;30.89;45.90;99293.72;5012150;28;20248;-68
2022/06/13 06:33:13;;;;;;;6.33;2.67;;;;;;;30.76;47.03;99295.59;5012762;28;20241;-69
2022/06/13 06:35:40;;;;;;;3.60;2.70;;;;;;;30.54;47.13;99293.09;5012285;28;20264;-69
2022/06/13 06:38:09;;;;;;;7.20;3.67;;;;;;;30.77;48.30;99288.97;5009400;28;20205;-73
2022/06/13 06:40:37;;;;;;;10.27;3.00;;;;;;;30.90;47.39;99287.88;5011924;28;20194;-71
2022/06/13 06:43:04;;;;;;;3.20;2.50;;;;;;;30.90;47.50;99295.34;5008055;28;20202;-70
2022/06/13 06:45:31;;;;;;;2.77;2.17;;;;;;;30.53;47.45;99291.50;4992766;28;20199;-69
2022/06/13 06:47:59;;;;;;;3.13;2.93;;;;;;;30.48;47.63;99290.88;4993258;28;20258;-71
2022/06/13 06:50:29;;;;;;;4.77;2.90;;;;;;;30.26;48.08;99285.69;4993035;28;20202;-69
2022/06/13 06:52:57;;;;;;;5.53;2.73;;;;;;;30.70;48.72;99285.94;5022102;28;20213;-68
2022/06/13 07:00:55;;;;;;;2.97;2.73;;;;;;;30.22;50.11;99285.53;5012358;28;20216;-66
2022/06/13 07:03:23;;;;;;;7.27;2.60;;;;;;;30.47;49.93;99284.59;5011708;28;20194;-66
2022/06/13 07:05:51;;;;;;;10.83;3.00;;;;;;;30.42;49.59;99284.78;5011874;28;20194;-67
2022/06/13 07:08:18;;;;;;;15.30;3.60;;;;;;;30.68;49.33;99279.97;5011655;28;20193;-65
2022/06/13 07:10:46;;;;;;;4.73;3.00;;;;;;;30.82;48.48;99283.28;5011911;28;20688;-66
2022/06/13 07:13:12;;;;;;;5.43;2.60;;;;;;;30.86;48.55;99284.22;5018967;28;20271;-67
2022/06/13 07:15:40;;;;;;;7.57;2.70;;;;;;;31.01;47.39;99280.88;5031129;28;20680;-66
2022/06/13 07:18:07;;;;;;;6.83;2.60;;;;;;;31.01;48.44;99280.88;5031869;28;20201;-66
2022/06/13 07:20:35;;;;;;;4.03;2.87;;;;;;;31.09;47.90;99282.75;5019524;28;20197;-67
2022/06/13 07:23:02;;;;;;;30.77;4.37;;;;;;;30.43;49.83;99280.91;5011733;28;20732;-66
2022/06/13 07:25:31;;;;;;;9.10;2.90;;;;;;;30.11;50.18;99284.25;5011332;28;20226;-65
2022/06/13 07:27:58;;;;;;;25.60;4.60;;;;;;;30.46;50.45;99280.22;5011364;28;20202;-65
2022/06/13 07:30:27;;;;;;;3.23;2.90;;;;;;;30.38;50.97;99289.31;5009267;28;20221;-66
2022/06/13 07:32:55;;;;;;;4.20;3.30;;;;;;;30.89;50.45;99289.03;5007019;28;20194;-66
2022/06/13 07:35:24;;;;;;;9.13;2.83;;;;;;;31.26;48.00;99293.59;4991801;28;20725;-67
2022/06/13 07:40:37;;;;;;;14.50;3.17;;;;;;;31.88;45.92;99307.22;4998054;28;20189;-68
2022/06/13 07:43:05;;;;;;;7.47;3.07;;;;;;;31.78;46.72;99300.25;5011820;28;20201;-67
2022/06/13 07:45:36;;;;;;;5.03;3.00;;;;;;;32.01;46.00;99301.41;5011855;28;20222;-71
2022/06/13 07:48:03;;;;;;;4.53;2.60;;;;;;;32.30;44.91;99309.50;5011802;28;20260;-71
2022/06/13 07:50:30;;;;;;;2.93;2.73;;;;;;;32.30;45.44;99312.25;5011892;28;20194;-71
2022/06/13 07:52:58;;;;;;;3.00;2.80;;;;;;;32.18;44.68;99305.91;5012342;28;20194;-71
2022/06/13 07:55:27;;;;;;;3.07;2.87;;;;;;;32.29;45.47;99302.41;5011359;28;20281;-71
2022/06/13 07:57:54;;;;;;;3.13;2.47;;;;;;;32.67;45.69;99299.31;5011361;28;20671;-70
2022/06/13 08:00:25;;;;;;;2.80;2.60;;;;;;;32.59;43.13;99302.97;5018391;28;20208;-72
2022/06/13 08:02:53;;;;;;;3.77;2.73;;;;;;;32.16;43.69;99305.44;5030900;28;20193;-72
2022/06/13 08:05:20;;;;;;;3.23;3.03;;;;;;;31.84;45.29;99301.63;5031036;28;20217;-75
2022/06/13 08:07:47;;;;;;;10.00;3.07;;;;;;;31.01;46.02;99299.28;5030891;28;20727;-74
2022/06/13 08:10:15;;;;;;;6.90;2.93;;;;;;;30.68;46.57;99296.41;5031282;28;20631;-73
2022/06/13 08:12:44;;;;;;;4.43;2.80;;;;;;;30.28;48.65;99283.41;5034582;28;20600;-73
2022/06/13 08:15:13;;;;;;;4.33;2.80;;;;;;;30.44;47.99;99282.53;5034559;28;20197;-76
2022/06/13 08:17:40;;;;;;;5.43;3.67;;;;;;;30.15;48.93;99290.72;5034985;28;20256;-75
2022/06/13 08:20:09;;;;;;;13.53;3.60;;;;;;;30.31;49.73;99286.31;5020426;28;20193;-74
2022/06/13 08:22:41;;;;;;;5.73;3.27;;;;;;;30.18;49.11;99292.81;5006333;28;20282;-73
2022/06/13 08:25:09;;;;;;;13.77;3.73;;;;;;;30.14;48.63;99291.88;5003773;28;20214;-75
2022/06/13 08:27:37;;;;;;;4.13;3.07;;;;;;;30.22;49.39;99285.53;5004789;28;20268;-75
2022/06/13 08:30:04;;;;;;;4.67;3.17;;;;;;;30.24;48.35;99290.66;5014829;28;20206;-75
2022/06/13 08:32:31;;;;;;;5.63;3.10;;;;;;;30.38;50.67;99289.31;5013848;28;20720;-76
2022/06/13 08:34:58;;;;;;;5.50;3.30;;;;;;;30.10;48.76;99290.88;5014070;28;20202;-73
2022/06/13 08:37:24;;;;;;;16.43;3.97;;;;;;;30.26;49.06;99286.50;5008531;28;20191;-74
2022/06/13 08:39:51;;;;;;;9.33;3.20;;;;;;;30.18;49.35;99290.06;4994850;28;20257;-74
2022/06/13 08:42:26;;;;;;;22.90;4.20;;;;;;;30.61;47.13;99296.13;4994772;28;20199;-73
2022/06/13 08:45:01;;;;;;;6.27;2.70;;;;;;;30.99;46.19;99299.59;4994659;28;20764;-73
2022/06/13 08:47:38;;;;;;;2.70;2.57;;;;;;;31.00;44.72;99295.75;4994993;28;20783;-73
2022/06/13 08:50:28;;;;;;;3.60;3.27;;;;;;;30.95;46.68;99290.44;4995006;28;20191;-75
2022/06/13 08:52:58;;;;;;;3.77;3.50;;;;;;;31.01;44.46;99305.56;4995060;28;20239;-72
2022/06/13 08:55:34;;;;;;;22.77;4.43;;;;;;;30.20;45.96;99296.03;4994585;28;20733;-74
2022/06/13 08:58:12;;;;;;;6.23;2.77;;;;;;;30.83;46.72;99301.31;5022629;28;20205;-76
2022/06/13 09:00:45;;;;;;;5.13;3.07;;;;;;;30.80;46.30;99302.00;5034558;28;20188;-78
2022/06/13 09:03:17;;;;;;;3.50;3.17;;;;;;;31.16;44.92;99299.50;5016286;28;20289;-77
2022/06/13 09:05:51;;;;;;;3.53;3.23;;;;;;;31.41;45.43;99303.97;4994650;28;20210;-79
2022/06/13 09:08:24;;;;;;;3.47;3.13;;;;;;;31.78;43.45;99319.47;4994345;28;20662;-78
2022/06/13 09:10:58;;;;;;;6.33;2.67;;;;;;;32.00;42.39;99319.06;4994662;28;20294;-76
2022/06/13 09:13:31;;;;;;;7.03;3.20;;;;;;;31.85;41.80;99316.94;4995154;28;20288;-76
2022/06/13 09:16:08;;;;;;;24.20;4.33;;;;;;;32.11;41.39;99324.91;4994697;28;20217;-74
2022/06/13 09:18:45;;;;;;;33.60;4.80;;;;;;;32.35;42.19;99325.78;4994533;28;20187;-75
2022/06/13 09:21:19;;;;;;;3.17;2.87;;;;;;;32.30;42.66;99315.00;5007473;28;20227;-74
2022/06/13 09:23:57;;;;;;;6.03;3.43;;;;;;;32.36;42.16;99326.56;5013410;28;20642;-76
2022/06/13 09:26:28;;;;;;;3.00;2.50;;;;;;;32.84;40.00;99321.91;5013444;28;20240;-75
2022/06/13 09:29:07;;;;;;;5.80;3.93;;;;;;;32.77;39.71;99327.16;5013650;28;20194;-72
2022/06/13 09:31:39;;;;;;;3.57;3.27;;;;;;;32.77;39.96;99327.16;5009370;28;20240;-72
2022/06/13 09:34:10;;;;;;;3.17;2.87;;;;;;;32.84;37.80;99321.09;5013491;28;20182;-72
2022/06/13 09:36:44;;;;;;;3.83;2.90;;;;;;;32.68;40.41;99323.72;5013588;28;20208;-72
2022/06/13 09:39:13;;;;;;;6.07;3.97;;;;;;;32.75;39.45;99323.16;5013807;28;20252;-72
2022/06/13 09:42:01;;;;;;;5.20;4.10;;;;;;;32.93;38.62;99324.50;4998837;28;20194;-73
2022/06/13 09:44:46;;;;;;;7.43;3.27;;;;;;;33.26;38.81;99323.19;4994224;28;20269;-72
2022/06/13 09:47:23;;;;;;;8.50;5.40;;;;;;;33.57;39.44;99316.19;4993966;28;20265;-72
2022/06/13 09:50:01;;;;;;;8.85;7.88;;;;;;;33.54;39.00;99316.88;4994369;28;20265;-72
2022/06/13 09:52:38;;;;;;;5.25;4.80;;;;;;;33.48;37.32;99312.78;4993468;28;20194;-74
2022/06/13 09:55:15;;;;;;;9.33;7.90;;;;;;;33.14;39.37;99309.44;4993481;28;20674;-73
2022/06/13 09:57:50;;;;;;;13.03;5.40;;;;;;;33.04;38.96;99318.16;5001292;28;20657;-75
2022/06/13 10:00:23;;;;;;;7.60;4.93;;;;;;;32.75;41.37;99306.63;5033267;28;20185;-74
2022/06/13 10:03:02;;;;;;;6.60;4.07;;;;;;;32.52;39.18;99308.25;5032650;28;20182;-77
2022/06/13 10:05:37;;;;;;;15.33;4.93;;;;;;;32.44;40.13;99304.47;5024711;28;20218;-77
2022/06/13 10:08:16;;;;;;;3.73;3.37;;;;;;;32.31;38.96;99311.13;5011428;28;20752;-75
2022/06/13 10:10:54;;;;;;;4.17;3.80;;;;;;;32.23;38.47;99313.94;5013006;28;20252;-72
2022/06/13 10:13:28;;;;;;;4.57;4.17;;;;;;;32.27;40.92;99299.19;5013186;28;20237;-77
2022/06/13 10:16:06;;;;;;;6.50;5.10;;;;;;;32.23;41.30;99298.25;5013277;28;20194;-75
2022/06/13 10:18:53;;;;;;;27.13;5.03;;;;;;;31.88;41.78;99293.50;5000875;28;20207;-72
2022/06/13 10:21:32;;;;;;;7.50;5.20;;;;;;;31.92;42.86;99295.22;5006853;28;20190;-75
2022/06/13 10:24:09;;;;;;;12.23;6.30;;;;;;;31.97;41.77;99291.47;5011076;28;20194;-76
2022/06/13 10:26:48;;;;;;;4.50;4.20;;;;;;;31.95;39.36;99300.03;5009635;28;20745;-75
2022/06/13 10:29:37;;;;;;;8.80;4.80;;;;;;;32.05;41.19;99290.56;4994899;28;20257;-77
2022/06/13 10:32:17;;;;;;;7.87;4.97;;;;;;;32.06;44.58;99283.91;5000385;28;20186;-75
2022/06/13 10:35:00;;;;;;;14.63;4.67;;;;;;;32.09;45.35;99275.78;5011208;28;20670;-78
2022/06/13 10:37:33;;;;;;;9.60;4.83;;;;;;;31.84;44.33;99270.56;5012552;28;20248;-76
2022/06/13 10:40:04;;;;;;;7.37;5.07;;;;;;;31.92;43.08;99273.25;5011290;28;20264;-73
2022/06/13 10:42:35;;;;;;;4.80;4.50;;;;;;;31.78;41.84;99269.22;5012647;28;20186;-75
2022/06/13 10:45:04;;;;;;;8.03;5.03;;;;;;;31.73;44.29;99263.91;5010645;28;20226;-74
2022/06/13 10:47:39;;;;;;;4.70;3.67;;;;;;;31.64;41.23;99272.22;5012174;28;20201;-74
2022/06/13 10:50:11;;;;;;;23.40;4.90;;;;;;;31.88;38.92;99266.81;5011226;28;20255;-74
2022/06/13 10:52:45;;;;;;;16.17;4.67;;;;;;;31.90;40.56;99263.72;5011180;28;20252;-74
2022/06/13 10:55:15;;;;;;;5.50;4.80;;;;;;;32.03;42.66;99251.59;5005554;28;20200;-72
2022/06/13 10:57:46;;;;;;;4.50;4.20;;;;;;;31.76;42.21;99253.06;5011720;28;20650;-75
2022/06/13 11:00:20;;;;;;;14.63;5.27;;;;;;;32.08;41.61;99254.94;5012053;28;20190;-74
2022/06/13 11:02:47;;;;;;;4.67;4.30;;;;;;;32.27;41.05;99246.94;5011342;28;20229;-73
2022/06/13 11:05:18;;;;;;;4.23;3.90;;;;;;;32.44;40.78;99246.72;5011550;28;20289;-72
2022/06/13 11:07:50;;;;;;;3.87;3.67;;;;;;;32.44;40.16;99252.22;5011666;28;20666;-72
2022/06/13 11:10:32;;;;;;;4.40;3.97;;;;;;;32.50;40.03;99239.03;5012298;28;20244;-71
2022/06/13 11:13:00;;;;;;;18.57;4.20;;;;;;;32.43;40.70;99245.13;5011700;28;20233;-71
2022/06/13 11:24:11;;;;;;;11.13;4.73;;;;;;;32.52;41.58;99234.78;5012277;28;20309;-72
2022/06/13 11:29:26;;;;;;;4.73;4.10;;;;;;;32.86;40.04;99226.03;4992382;28;20314;-73
2022/06/13 11:31:55;;;;;;;4.73;4.30;;;;;;;32.83;38.57;99223.97;4998147;28;20190;-72
2022/06/13 11:34:29;;;;;;;9.20;4.47;;;;;;;32.83;40.19;99218.44;5011982;28;20202;-72
2022/06/13 11:37:02;;;;;;;9.90;4.57;;;;;;;32.89;38.79;99225.34;5011729;28;20539;-72
2022/06/13 11:39:35;;;;;;;9.20;4.47;;;;;;;33.01;40.94;99213.47;5012277;28;20190;-71
2022/06/13 11:42:03;;;;;;;14.50;5.40;;;;;;;33.01;41.97;99203.25;4994350;28;20254;-71
2022/06/13 11:44:32;;;;;;;6.57;4.57;;;;;;;32.93;39.74;99206.16;4992388;28;20225;-73
2022/06/13 11:47:02;;;;;;;9.07;4.83;;;;;;;32.67;39.08;99211.25;4995669;28;20195;-75
2022/06/13 11:49:34;;;;;;;8.87;4.53;;;;;;;32.50;39.68;99209.56;4995812;28;20205;-75
2022/06/13 11:55:01;;;;;;;8.87;5.20;;;;;;;32.09;39.47;99196.06;5014658;28;20225;-73
2022/06/13 11:57:34;;;;;;;6.33;4.47;;;;;;;32.21;40.15;99207.03;5015276;28;20324;-73
2022/06/13 12:00:04;;;;;;;16.33;6.20;;;;;;;32.06;39.79;99193.22;5016007;28;20190;-72
2022/06/13 12:02:54;;;;;;;4.60;4.13;;;;;;;32.27;38.98;99199.38;5015112;28;20302;-73
2022/06/13 12:05:28;;;;;;;5.43;4.60;;;;;;;32.41;38.86;99192.41;5015543;28;20214;-73
2022/06/13 12:08:00;;;;;;;6.37;5.13;;;;;;;32.49;38.64;99194.22;5015255;28;20190;-75
2022/06/13 12:10:30;;;;;;;5.70;4.20;;;;;;;32.76;38.67;99181.66;5015539;28;20243;-72
2022/06/13 12:12:57;;;;;;;11.67;4.73;;;;;;;32.80;37.63;99177.91;5015655;28;20237;-73
2022/06/13 12:15:35;;;;;;;8.67;4.60;;;;;;;32.95;37.71;99174.38;5015155;28;20206;-73
2022/06/13 12:18:11;;;;;;;4.97;4.33;;;;;;;32.81;36.28;99173.97;5014867;28;20704;-72
2022/06/13 12:20:44;;;;;;;4.67;4.30;;;;;;;32.63;36.86;99172.63;5014628;28;20194;-71